sensor_id;sensor_type;location;lat;lon;timestamp;P1;durP1;ratioP1;P2;durP2;ratioP2
47513;SDS011;33951;51.988;5.910;2023-05-16T04:01:48;23.25;;;3.38;;
47513;SDS011;33951;51.988;5.910;2023-05-16T04:04:14;24.60;;;3.40;;
47513;SDS011;33951;51.988;5.910;2023-05-16T04:06:40;23.58;;;4.13;;
47513;SDS011;33951;51.988;5.910;2023-05-16T04:09:08;14.55;;;3.08;;
47513;SDS011;33951;51.988;5.910;2023-05-16T04:11:34;18.48;;;3.25;;
47513;SDS011;33951;51.988;5.910;2023-05-16T04:14:00;25.90;;;4.25;;
47513;SDS011;33951;51.988;5.910;2023-05-16T04:16:28;19.75;;;3.72;;
47513;SDS011;33951;51.988;5.910;2023-05-16T04:18:54;14.02;;;3.92;;
47513;SDS011;33951;51.988;5.910;2023-05-16T04:21:20;13.98;;;3.25;;
47513;SDS011;33951;51.988;5.910;2023-05-16T04:23:46;14.45;;;3.45;;
47513;SDS011;33951;51.988;5.910;2023-05-16T04:26:12;12.93;;;3.22;;
47513;SDS011;33951;51.988;5.910;2023-05-16T04:28:38;17.58;;;3.53;;
47513;SDS011;33951;51.988;5.910;2023-05-16T04:31:05;21.08;;;6.88;;
47513;SDS011;33951;51.988;5.910;2023-05-16T04:33:32;17.42;;;3.13;;
47513;SDS011;33951;51.988;5.910;2023-05-16T04:35:57;14.35;;;5.22;;
47513;SDS011;33951;51.988;5.910;2023-05-16T04:38:24;16.23;;;3.78;;
47513;SDS011;33951;51.988;5.910;2023-05-16T04:40:50;15.50;;;3.67;;
47513;SDS011;33951;51.988;5.910;2023-05-16T04:43:16;19.55;;;3.53;;
47513;SDS011;33951;51.988;5.910;2023-05-16T04:45:42;16.50;;;3.25;;
47513;SDS011;33951;51.988;5.910;2023-05-16T04:48:08;13.50;;;3.53;;
47513;SDS011;33951;51.988;5.910;2023-05-16T04:50:34;13.00;;;3.05;;
47513;SDS011;33951;51.988;5.910;2023-05-16T04:52:59;14.18;;;3.65;;
47513;SDS011;33951;51.988;5.910;2023-05-16T04:55:25;20.35;;;3.85;;
47513;SDS011;33951;51.988;5.910;2023-05-16T04:57:51;16.08;;;3.45;;
47513;SDS011;33951;51.988;5.910;2023-05-16T05:00:16;20.98;;;4.15;;
47513;SDS011;33951;51.988;5.910;2023-05-16T05:02:48;25.63;;;3.70;;
47513;SDS011;33951;51.988;5.910;2023-05-16T05:05:14;22.67;;;4.50;;
47513;SDS011;33951;51.988;5.910;2023-05-16T05:07:40;12.93;;;3.50;;
47513;SDS011;33951;51.988;5.910;2023-05-16T05:10:07;18.02;;;3.72;;
47513;SDS011;33951;51.988;5.910;2023-05-16T05:12:36;11.35;;;2.75;;
47513;SDS011;33951;51.988;5.910;2023-05-16T05:15:05;19.45;;;3.72;;
47513;SDS011;33951;51.988;5.910;2023-05-16T05:17:37;17.00;;;3.53;;
47513;SDS011;33951;51.988;5.910;2023-05-16T05:20:05;11.38;;;3.30;;
47513;SDS011;33951;51.988;5.910;2023-05-16T05:22:49;14.98;;;3.58;;
47513;SDS011;33951;51.988;5.910;2023-05-16T05:25:14;14.27;;;3.67;;
47513;SDS011;33951;51.988;5.910;2023-05-16T05:27:43;11.57;;;4.15;;
47513;SDS011;33951;51.988;5.910;2023-05-16T05:30:08;17.92;;;6.78;;
47513;SDS011;33951;51.988;5.910;2023-05-16T05:32:35;14.38;;;3.17;;
47513;SDS011;33951;51.988;5.910;2023-05-16T05:35:01;16.75;;;3.28;;
47513;SDS011;33951;51.988;5.910;2023-05-16T05:37:27;13.50;;;3.60;;
47513;SDS011;33951;51.988;5.910;2023-05-16T05:39:54;16.08;;;4.55;;
47513;SDS011;33951;51.988;5.910;2023-05-16T05:42:20;17.20;;;5.75;;
47513;SDS011;33951;51.988;5.910;2023-05-16T05:44:46;15.57;;;3.58;;
47513;SDS011;33951;51.988;5.910;2023-05-16T05:47:12;25.67;;;3.45;;
47513;SDS011;33951;51.988;5.910;2023-05-16T05:49:38;15.60;;;3.92;;
47513;SDS011;33951;51.988;5.910;2023-05-16T05:52:04;16.38;;;2.40;;
47513;SDS011;33951;51.988;5.910;2023-05-16T05:54:29;13.10;;;2.80;;
47513;SDS011;33951;51.988;5.910;2023-05-16T05:56:58;16.73;;;2.88;;
47513;SDS011;33951;51.988;5.910;2023-05-16T05:59:24;21.60;;;3.38;;
47513;SDS011;33951;51.988;5.910;2023-05-16T06:01:50;14.02;;;3.20;;
47513;SDS011;33951;51.988;5.910;2023-05-16T06:04:19;13.10;;;3.17;;
47513;SDS011;33951;51.988;5.910;2023-05-16T06:06:48;12.55;;;2.70;;
47513;SDS011;33951;51.988;5.910;2023-05-16T06:09:16;15.20;;;3.92;;
47513;SDS011;33951;51.988;5.910;2023-05-16T06:14:34;12.48;;;2.92;;
47513;SDS011;33951;51.988;5.910;2023-05-16T06:17:00;20.70;;;3.13;;
47513;SDS011;33951;51.988;5.910;2023-05-16T06:19:25;15.43;;;3.88;;
47513;SDS011;33951;51.988;5.910;2023-05-16T06:21:51;17.63;;;3.08;;
47513;SDS011;33951;51.988;5.910;2023-05-16T06:24:17;13.77;;;4.20;;
47513;SDS011;33951;51.988;5.910;2023-05-16T06:26:42;10.75;;;3.38;;
47513;SDS011;33951;51.988;5.910;2023-05-16T06:29:10;14.18;;;3.78;;
47513;SDS011;33951;51.988;5.910;2023-05-16T06:31:35;20.90;;;3.05;;
47513;SDS011;33951;51.988;5.910;2023-05-16T06:34:01;15.70;;;3.45;;
47513;SDS011;33951;51.988;5.910;2023-05-16T06:36:27;16.25;;;3.72;;
47513;SDS011;33951;51.988;5.910;2023-05-16T06:38:59;17.25;;;3.67;;
47513;SDS011;33951;51.988;5.910;2023-05-16T06:41:27;14.77;;;3.80;;
47513;SDS011;33951;51.988;5.910;2023-05-16T06:43:53;11.75;;;2.90;;
47513;SDS011;33951;51.988;5.910;2023-05-16T06:46:18;13.10;;;3.47;;
47513;SDS011;33951;51.988;5.910;2023-05-16T06:48:44;16.65;;;3.33;;
47513;SDS011;33951;51.988;5.910;2023-05-16T06:51:10;17.63;;;3.90;;
47513;SDS011;33951;51.988;5.910;2023-05-16T06:53:35;13.50;;;2.65;;
47513;SDS011;33951;51.988;5.910;2023-05-16T06:56:01;14.95;;;3.22;;
47513;SDS011;33951;51.988;5.910;2023-05-16T06:58:27;6.65;;;2.58;;
47513;SDS011;33951;51.988;5.910;2023-05-16T07:00:52;9.88;;;3.03;;
47513;SDS011;33951;51.988;5.910;2023-05-16T07:09:39;15.00;;;3.05;;
47513;SDS011;33951;51.988;5.910;2023-05-16T07:12:05;13.70;;;2.80;;
47513;SDS011;33951;51.988;5.910;2023-05-16T07:14:44;13.00;;;2.85;;
47513;SDS011;33951;51.988;5.910;2023-05-16T07:17:13;14.20;;;3.55;;
47513;SDS011;33951;51.988;5.910;2023-05-16T07:19:39;13.40;;;2.92;;
47513;SDS011;33951;51.988;5.910;2023-05-16T07:22:10;9.38;;;3.13;;
47513;SDS011;33951;51.988;5.910;2023-05-16T07:24:36;7.95;;;2.08;;
47513;SDS011;33951;51.988;5.910;2023-05-16T07:27:05;10.20;;;2.03;;
47513;SDS011;33951;51.988;5.910;2023-05-16T07:29:33;8.27;;;2.00;;
47513;SDS011;33951;51.988;5.910;2023-05-16T07:32:02;7.38;;;2.10;;
47513;SDS011;33951;51.988;5.910;2023-05-16T07:34:28;8.85;;;2.80;;
47513;SDS011;33951;51.988;5.910;2023-05-16T07:40:18;11.25;;;2.80;;
47513;SDS011;33951;51.988;5.910;2023-05-16T07:49:56;8.63;;;1.50;;
47513;SDS011;33951;51.988;5.910;2023-05-16T07:55:50;5.68;;;1.48;;
47513;SDS011;33951;51.988;5.910;2023-05-16T08:01:17;7.85;;;1.50;;
47513;SDS011;33951;51.988;5.910;2023-05-16T08:07:15;6.65;;;1.60;;
47513;SDS011;33951;51.988;5.910;2023-05-16T08:10:11;7.40;;;2.45;;
47513;SDS011;33951;51.988;5.910;2023-05-16T08:13:07;6.38;;;1.60;;
47513;SDS011;33951;51.988;5.910;2023-05-16T08:23:08;9.38;;;1.92;;
47513;SDS011;33951;51.988;5.910;2023-05-16T08:25:34;8.45;;;2.00;;
47513;SDS011;33951;51.988;5.910;2023-05-16T08:28:00;6.00;;;2.38;;
47513;SDS011;33951;51.988;5.910;2023-05-16T08:30:26;6.35;;;2.17;;
47513;SDS011;33951;51.988;5.910;2023-05-16T08:32:52;9.48;;;1.98;;
47513;SDS011;33951;51.988;5.910;2023-05-16T08:35:18;6.40;;;2.15;;
47513;SDS011;33951;51.988;5.910;2023-05-16T08:37:43;6.63;;;1.92;;
47513;SDS011;33951;51.988;5.910;2023-05-16T08:40:09;9.40;;;2.03;;
47513;SDS011;33951;51.988;5.910;2023-05-16T08:42:36;12.32;;;1.75;;
47513;SDS011;33951;51.988;5.910;2023-05-16T08:45:02;9.30;;;2.10;;
47513;SDS011;33951;51.988;5.910;2023-05-16T08:47:29;3.78;;;1.30;;
47513;SDS011;33951;51.988;5.910;2023-05-16T08:49:56;5.90;;;1.55;;
47513;SDS011;33951;51.988;5.910;2023-05-16T08:52:23;5.90;;;1.52;;
47513;SDS011;33951;51.988;5.910;2023-05-16T08:54:55;8.27;;;1.95;;
47513;SDS011;33951;51.988;5.910;2023-05-16T08:57:25;2.92;;;1.10;;
47513;SDS011;33951;51.988;5.910;2023-05-16T08:59:51;5.53;;;1.33;;
47513;SDS011;33951;51.988;5.910;2023-05-16T09:02:19;4.95;;;1.70;;
47513;SDS011;33951;51.988;5.910;2023-05-16T09:04:46;3.40;;;1.10;;
47513;SDS011;33951;51.988;5.910;2023-05-16T09:07:13;11.20;;;1.40;;
47513;SDS011;33951;51.988;5.910;2023-05-16T09:09:38;5.80;;;1.23;;
47513;SDS011;33951;51.988;5.910;2023-05-16T09:12:05;3.50;;;1.00;;
47513;SDS011;33951;51.988;5.910;2023-05-16T09:14:32;5.07;;;1.10;;
47513;SDS011;33951;51.988;5.910;2023-05-16T09:17:04;6.53;;;1.00;;
47513;SDS011;33951;51.988;5.910;2023-05-16T09:19:37;8.27;;;1.92;;
47513;SDS011;33951;51.988;5.910;2023-05-16T09:22:05;7.38;;;1.77;;
47513;SDS011;33951;51.988;5.910;2023-05-16T09:24:44;5.47;;;1.67;;
47513;SDS011;33951;51.988;5.910;2023-05-16T09:29:39;6.10;;;1.27;;
47513;SDS011;33951;51.988;5.910;2023-05-16T09:32:14;3.00;;;1.00;;
47513;SDS011;33951;51.988;5.910;2023-05-16T09:34:44;7.40;;;4.05;;
47513;SDS011;33951;51.988;5.910;2023-05-16T09:37:13;3.97;;;1.45;;
47513;SDS011;33951;51.988;5.910;2023-05-16T09:39:49;4.30;;;1.65;;
47513;SDS011;33951;51.988;5.910;2023-05-16T09:42:19;4.28;;;1.50;;
47513;SDS011;33951;51.988;5.910;2023-05-16T09:44:50;4.80;;;1.63;;
47513;SDS011;33951;51.988;5.910;2023-05-16T09:47:18;8.25;;;1.70;;
47513;SDS011;33951;51.988;5.910;2023-05-16T09:49:45;5.35;;;1.80;;
47513;SDS011;33951;51.988;5.910;2023-05-16T09:52:12;5.72;;;1.73;;
47513;SDS011;33951;51.988;5.910;2023-05-16T09:54:41;3.33;;;1.33;;
47513;SDS011;33951;51.988;5.910;2023-05-16T09:57:07;11.02;;;1.83;;
47513;SDS011;33951;51.988;5.910;2023-05-16T09:59:34;6.65;;;1.70;;
47513;SDS011;33951;51.988;5.910;2023-05-16T10:02:01;5.25;;;1.27;;
47513;SDS011;33951;51.988;5.910;2023-05-16T10:04:29;5.97;;;1.70;;
47513;SDS011;33951;51.988;5.910;2023-05-16T10:06:55;6.70;;;1.67;;
47513;SDS011;33951;51.988;5.910;2023-05-16T10:09:24;7.50;;;2.17;;
47513;SDS011;33951;51.988;5.910;2023-05-16T10:11:51;5.78;;;1.77;;
47513;SDS011;33951;51.988;5.910;2023-05-16T10:14:17;3.78;;;1.15;;
47513;SDS011;33951;51.988;5.910;2023-05-16T10:16:46;7.38;;;1.75;;
47513;SDS011;33951;51.988;5.910;2023-05-16T10:19:15;12.57;;;4.70;;
47513;SDS011;33951;51.988;5.910;2023-05-16T10:21:45;5.13;;;1.55;;
47513;SDS011;33951;51.988;5.910;2023-05-16T10:24:17;4.72;;;1.50;;
47513;SDS011;33951;51.988;5.910;2023-05-16T10:26:48;4.68;;;1.70;;
47513;SDS011;33951;51.988;5.910;2023-05-16T10:29:15;5.47;;;1.75;;
47513;SDS011;33951;51.988;5.910;2023-05-16T10:31:42;6.25;;;1.90;;
47513;SDS011;33951;51.988;5.910;2023-05-16T10:34:08;8.07;;;2.20;;
47513;SDS011;33951;51.988;5.910;2023-05-16T10:36:34;4.35;;;1.50;;
47513;SDS011;33951;51.988;5.910;2023-05-16T10:39:00;5.28;;;2.00;;
47513;SDS011;33951;51.988;5.910;2023-05-16T10:41:28;8.05;;;2.08;;
47513;SDS011;33951;51.988;5.910;2023-05-16T10:43:57;3.75;;;1.23;;
47513;SDS011;33951;51.988;5.910;2023-05-16T10:46:23;5.18;;;1.63;;
47513;SDS011;33951;51.988;5.910;2023-05-16T10:51:40;7.13;;;2.00;;
47513;SDS011;33951;51.988;5.910;2023-05-16T10:54:07;6.80;;;1.40;;
47513;SDS011;33951;51.988;5.910;2023-05-16T10:56:35;5.22;;;1.65;;
47513;SDS011;33951;51.988;5.910;2023-05-16T10:59:01;6.47;;;1.90;;
47513;SDS011;33951;51.988;5.910;2023-05-16T11:01:35;3.65;;;1.60;;
47513;SDS011;33951;51.988;5.910;2023-05-16T11:04:05;5.18;;;1.60;;
47513;SDS011;33951;51.988;5.910;2023-05-16T11:16:50;3.60;;;1.80;;
47513;SDS011;33951;51.988;5.910;2023-05-16T11:24:59;5.43;;;1.85;;
47513;SDS011;33951;51.988;5.910;2023-05-16T11:27:35;4.40;;;1.40;;
47513;SDS011;33951;51.988;5.910;2023-05-16T11:30:12;7.20;;;2.92;;
47513;SDS011;33951;51.988;5.910;2023-05-16T11:32:41;4.15;;;1.33;;
47513;SDS011;33951;51.988;5.910;2023-05-16T11:37:35;5.97;;;1.65;;
47513;SDS011;33951;51.988;5.910;2023-05-16T11:40:04;6.75;;;1.88;;
47513;SDS011;33951;51.988;5.910;2023-05-16T11:42:36;7.93;;;1.75;;
47513;SDS011;33951;51.988;5.910;2023-05-16T11:45:10;4.93;;;1.70;;
47513;SDS011;33951;51.988;5.910;2023-05-16T11:47:41;3.03;;;1.40;;
47513;SDS011;33951;51.988;5.910;2023-05-16T11:50:17;7.85;;;1.65;;
47513;SDS011;33951;51.988;5.910;2023-05-16T11:52:50;3.28;;;1.52;;
47513;SDS011;33951;51.988;5.910;2023-05-16T11:55:18;4.07;;;1.92;;
47513;SDS011;33951;51.988;5.910;2023-05-16T11:57:45;5.82;;;1.65;;
47513;SDS011;33951;51.988;5.910;2023-05-16T12:02:43;7.70;;;2.00;;
47513;SDS011;33951;51.988;5.910;2023-05-16T12:07:38;6.60;;;2.30;;
47513;SDS011;33951;51.988;5.910;2023-05-16T12:10:08;4.25;;;1.50;;
47513;SDS011;33951;51.988;5.910;2023-05-16T12:12:34;9.43;;;1.52;;
47513;SDS011;33951;51.988;5.910;2023-05-16T12:15:01;4.65;;;1.50;;
47513;SDS011;33951;51.988;5.910;2023-05-16T12:17:28;10.57;;;2.20;;
47513;SDS011;33951;51.988;5.910;2023-05-16T12:19:54;6.68;;;1.98;;
47513;SDS011;33951;51.988;5.910;2023-05-16T12:22:21;3.22;;;1.65;;
47513;SDS011;33951;51.988;5.910;2023-05-16T12:24:47;3.60;;;1.45;;
47513;SDS011;33951;51.988;5.910;2023-05-16T12:27:12;4.68;;;1.63;;
47513;SDS011;33951;51.988;5.910;2023-05-16T12:29:48;9.93;;;2.00;;
47513;SDS011;33951;51.988;5.910;2023-05-16T12:32:18;5.40;;;1.55;;
47513;SDS011;33951;51.988;5.910;2023-05-16T12:34:50;7.45;;;1.77;;
47513;SDS011;33951;51.988;5.910;2023-05-16T12:37:20;6.68;;;1.88;;
47513;SDS011;33951;51.988;5.910;2023-05-16T12:39:46;10.70;;;2.65;;
47513;SDS011;33951;51.988;5.910;2023-05-16T12:42:12;7.32;;;1.92;;
47513;SDS011;33951;51.988;5.910;2023-05-16T12:44:39;4.95;;;1.40;;
47513;SDS011;33951;51.988;5.910;2023-05-16T12:47:11;8.38;;;1.52;;
47513;SDS011;33951;51.988;5.910;2023-05-16T12:49:46;5.03;;;1.50;;
47513;SDS011;33951;51.988;5.910;2023-05-16T12:52:18;7.38;;;1.75;;
47513;SDS011;33951;51.988;5.910;2023-05-16T12:54:45;3.78;;;1.50;;
47513;SDS011;33951;51.988;5.910;2023-05-16T12:57:11;4.95;;;1.70;;
47513;SDS011;33951;51.988;5.910;2023-05-16T12:59:37;7.70;;;2.08;;
47513;SDS011;33951;51.988;5.910;2023-05-16T13:02:03;8.18;;;2.03;;
47513;SDS011;33951;51.988;5.910;2023-05-16T13:04:29;7.50;;;1.35;;
47513;SDS011;33951;51.988;5.910;2023-05-16T13:06:54;6.75;;;2.17;;
47513;SDS011;33951;51.988;5.910;2023-05-16T13:09:21;9.35;;;2.03;;
47513;SDS011;33951;51.988;5.910;2023-05-16T13:11:47;6.43;;;1.58;;
47513;SDS011;33951;51.988;5.910;2023-05-16T13:14:14;6.43;;;1.50;;
47513;SDS011;33951;51.988;5.910;2023-05-16T13:16:41;8.10;;;1.70;;
47513;SDS011;33951;51.988;5.910;2023-05-16T13:19:07;6.95;;;1.45;;
47513;SDS011;33951;51.988;5.910;2023-05-16T13:21:33;7.07;;;2.22;;
47513;SDS011;33951;51.988;5.910;2023-05-16T13:23:59;4.85;;;1.30;;
47513;SDS011;33951;51.988;5.910;2023-05-16T13:26:25;5.07;;;1.85;;
47513;SDS011;33951;51.988;5.910;2023-05-16T13:28:51;4.30;;;1.30;;
47513;SDS011;33951;51.988;5.910;2023-05-16T13:31:18;4.45;;;1.50;;
47513;SDS011;33951;51.988;5.910;2023-05-16T13:33:44;5.05;;;1.58;;
47513;SDS011;33951;51.988;5.910;2023-05-16T13:36:10;5.22;;;1.83;;
47513;SDS011;33951;51.988;5.910;2023-05-16T13:38:38;5.22;;;1.73;;
47513;SDS011;33951;51.988;5.910;2023-05-16T13:41:04;3.70;;;1.98;;
47513;SDS011;33951;51.988;5.910;2023-05-16T13:43:30;5.03;;;1.50;;
47513;SDS011;33951;51.988;5.910;2023-05-16T13:45:55;5.20;;;1.63;;
47513;SDS011;33951;51.988;5.910;2023-05-16T13:48:22;6.97;;;1.70;;
47513;SDS011;33951;51.988;5.910;2023-05-16T13:50:47;3.80;;;1.50;;
47513;SDS011;33951;51.988;5.910;2023-05-16T13:53:13;8.98;;;1.63;;
47513;SDS011;33951;51.988;5.910;2023-05-16T13:55:38;7.13;;;2.00;;
47513;SDS011;33951;51.988;5.910;2023-05-16T13:58:04;12.13;;;2.95;;
47513;SDS011;33951;51.988;5.910;2023-05-16T14:00:33;8.93;;;2.40;;
47513;SDS011;33951;51.988;5.910;2023-05-16T14:02:58;9.38;;;2.08;;
47513;SDS011;33951;51.988;5.910;2023-05-16T14:05:24;6.55;;;2.05;;
47513;SDS011;33951;51.988;5.910;2023-05-16T14:07:50;8.88;;;2.28;;
47513;SDS011;33951;51.988;5.910;2023-05-16T14:10:16;10.57;;;2.30;;
47513;SDS011;33951;51.988;5.910;2023-05-16T14:12:42;4.25;;;1.63;;
47513;SDS011;33951;51.988;5.910;2023-05-16T14:15:10;8.50;;;2.13;;
47513;SDS011;33951;51.988;5.910;2023-05-16T14:17:35;8.13;;;2.30;;
47513;SDS011;33951;51.988;5.910;2023-05-16T14:20:01;9.38;;;2.15;;
47513;SDS011;33951;51.988;5.910;2023-05-16T14:22:28;8.13;;;2.03;;
47513;SDS011;33951;51.988;5.910;2023-05-16T14:24:53;6.90;;;2.08;;
47513;SDS011;33951;51.988;5.910;2023-05-16T14:27:19;8.90;;;2.28;;
47513;SDS011;33951;51.988;5.910;2023-05-16T14:29:45;6.00;;;2.30;;
47513;SDS011;33951;51.988;5.910;2023-05-16T14:32:12;7.18;;;2.00;;
47513;SDS011;33951;51.988;5.910;2023-05-16T14:34:39;9.70;;;1.80;;
47513;SDS011;33951;51.988;5.910;2023-05-16T14:37:05;5.30;;;1.88;;
47513;SDS011;33951;51.988;5.910;2023-05-16T14:39:30;7.90;;;1.80;;
47513;SDS011;33951;51.988;5.910;2023-05-16T14:41:59;6.28;;;2.22;;
47513;SDS011;33951;51.988;5.910;2023-05-16T14:44:28;7.97;;;2.22;;
47513;SDS011;33951;51.988;5.910;2023-05-16T14:46:56;10.50;;;2.20;;
47513;SDS011;33951;51.988;5.910;2023-05-16T14:49:21;4.88;;;1.67;;
47513;SDS011;33951;51.988;5.910;2023-05-16T14:51:47;5.80;;;2.05;;
47513;SDS011;33951;51.988;5.910;2023-05-16T14:54:15;3.53;;;1.50;;
47513;SDS011;33951;51.988;5.910;2023-05-16T14:56:44;8.48;;;2.10;;
47513;SDS011;33951;51.988;5.910;2023-05-16T14:59:12;5.82;;;2.00;;
47513;SDS011;33951;51.988;5.910;2023-05-16T15:01:38;9.70;;;2.30;;
47513;SDS011;33951;51.988;5.910;2023-05-16T15:04:04;6.47;;;1.60;;
47513;SDS011;33951;51.988;5.910;2023-05-16T15:06:30;8.85;;;2.33;;
47513;SDS011;33951;51.988;5.910;2023-05-16T15:08:55;6.93;;;2.10;;
47513;SDS011;33951;51.988;5.910;2023-05-16T15:11:21;8.85;;;1.95;;
47513;SDS011;33951;51.988;5.910;2023-05-16T15:13:47;6.97;;;1.80;;
47513;SDS011;33951;51.988;5.910;2023-05-16T15:16:13;9.35;;;2.70;;
47513;SDS011;33951;51.988;5.910;2023-05-16T16:01:01;8.10;;;1.80;;
47513;SDS011;33951;51.988;5.910;2023-05-16T16:03:27;6.90;;;1.80;;
47513;SDS011;33951;51.988;5.910;2023-05-16T16:05:53;10.35;;;2.20;;
47513;SDS011;33951;51.988;5.910;2023-05-16T16:08:19;7.05;;;1.48;;
47513;SDS011;33951;51.988;5.910;2023-05-16T16:10:45;8.25;;;2.05;;
47513;SDS011;33951;51.988;5.910;2023-05-16T16:13:10;4.95;;;1.55;;
47513;SDS011;33951;51.988;5.910;2023-05-16T16:15:37;9.27;;;2.65;;
47513;SDS011;33951;51.988;5.910;2023-05-16T16:18:02;5.05;;;1.83;;
47513;SDS011;33951;51.988;5.910;2023-05-16T16:20:30;4.95;;;1.75;;
47513;SDS011;33951;51.988;5.910;2023-05-16T16:22:58;5.13;;;2.25;;
47513;SDS011;33951;51.988;5.910;2023-05-16T16:25:27;6.35;;;1.73;;
47513;SDS011;33951;51.988;5.910;2023-05-16T16:27:55;9.20;;;2.47;;
47513;SDS011;33951;51.988;5.910;2023-05-16T16:30:20;8.48;;;1.55;;
47513;SDS011;33951;51.988;5.910;2023-05-16T16:32:56;6.72;;;2.15;;
47513;SDS011;33951;51.988;5.910;2023-05-16T16:35:27;5.95;;;2.38;;
47513;SDS011;33951;51.988;5.910;2023-05-16T16:37:55;7.13;;;2.30;;
47513;SDS011;33951;51.988;5.910;2023-05-16T16:40:26;6.00;;;1.65;;
47513;SDS011;33951;51.988;5.910;2023-05-16T16:42:55;4.85;;;1.58;;
47513;SDS011;33951;51.988;5.910;2023-05-16T16:45:20;7.22;;;2.08;;
47513;SDS011;33951;51.988;5.910;2023-05-16T16:47:49;9.00;;;2.05;;
47513;SDS011;33951;51.988;5.910;2023-05-16T16:50:15;6.93;;;1.98;;
47513;SDS011;33951;51.988;5.910;2023-05-16T16:52:43;4.25;;;1.42;;
47513;SDS011;33951;51.988;5.910;2023-05-16T16:55:11;9.02;;;2.35;;
47513;SDS011;33951;51.988;5.910;2023-05-16T16:57:40;8.48;;;2.45;;
47513;SDS011;33951;51.988;5.910;2023-05-16T17:00:06;5.57;;;1.98;;
47513;SDS011;33951;51.988;5.910;2023-05-16T17:02:33;6.28;;;2.00;;
47513;SDS011;33951;51.988;5.910;2023-05-16T17:05:01;9.40;;;1.95;;
47513;SDS011;33951;51.988;5.910;2023-05-16T17:07:31;9.00;;;2.20;;
47513;SDS011;33951;51.988;5.910;2023-05-16T17:09:57;6.60;;;2.13;;
47513;SDS011;33951;51.988;5.910;2023-05-16T17:12:28;6.43;;;2.15;;
47513;SDS011;33951;51.988;5.910;2023-05-16T17:14:57;3.65;;;1.73;;
47513;SDS011;33951;51.988;5.910;2023-05-16T17:17:24;7.45;;;1.83;;
47513;SDS011;33951;51.988;5.910;2023-05-16T17:19:50;6.72;;;2.20;;
47513;SDS011;33951;51.988;5.910;2023-05-16T17:22:16;5.40;;;1.80;;
47513;SDS011;33951;51.988;5.910;2023-05-16T17:24:50;5.47;;;1.60;;
47513;SDS011;33951;51.988;5.910;2023-05-16T17:40:45;7.03;;;1.58;;
47513;SDS011;33951;51.988;5.910;2023-05-16T17:46:17;6.50;;;1.83;;
47513;SDS011;33951;51.988;5.910;2023-05-16T17:48:43;4.30;;;1.38;;
47513;SDS011;33951;51.988;5.910;2023-05-16T17:51:45;3.33;;;1.77;;
47513;SDS011;33951;51.988;5.910;2023-05-16T17:54:16;6.65;;;1.80;;
47513;SDS011;33951;51.988;5.910;2023-05-16T17:56:43;7.40;;;2.05;;
47513;SDS011;33951;51.988;5.910;2023-05-16T17:59:15;8.02;;;1.98;;
47513;SDS011;33951;51.988;5.910;2023-05-16T18:01:43;7.35;;;1.88;;
47513;SDS011;33951;51.988;5.910;2023-05-16T18:04:09;9.00;;;2.75;;
47513;SDS011;33951;51.988;5.910;2023-05-16T18:06:43;8.07;;;2.60;;
47513;SDS011;33951;51.988;5.910;2023-05-16T18:09:12;7.20;;;2.95;;
47513;SDS011;33951;51.988;5.910;2023-05-16T18:11:54;7.03;;;2.50;;
47513;SDS011;33951;51.988;5.910;2023-05-16T18:14:49;8.05;;;2.75;;
47513;SDS011;33951;51.988;5.910;2023-05-16T18:17:31;6.97;;;2.15;;
47513;SDS011;33951;51.988;5.910;2023-05-16T18:20:07;6.88;;;1.98;;
47513;SDS011;33951;51.988;5.910;2023-05-16T18:22:46;6.80;;;2.50;;
47513;SDS011;33951;51.988;5.910;2023-05-16T18:25:18;7.75;;;2.65;;
47513;SDS011;33951;51.988;5.910;2023-05-16T18:27:52;4.03;;;1.57;;
47513;SDS011;33951;51.988;5.910;2023-05-16T18:30:36;8.35;;;2.78;;
47513;SDS011;33951;51.988;5.910;2023-05-16T18:33:06;3.80;;;1.90;;
47513;SDS011;33951;51.988;5.910;2023-05-16T18:35:38;4.90;;;1.90;;
47513;SDS011;33951;51.988;5.910;2023-05-16T18:38:12;4.57;;;2.20;;
47513;SDS011;33951;51.988;5.910;2023-05-16T18:40:43;5.00;;;1.70;;
47513;SDS011;33951;51.988;5.910;2023-05-16T18:43:14;6.53;;;2.13;;
47513;SDS011;33951;51.988;5.910;2023-05-16T18:45:42;7.03;;;2.55;;
47513;SDS011;33951;51.988;5.910;2023-05-16T18:48:10;7.45;;;2.08;;
47513;SDS011;33951;51.988;5.910;2023-05-16T18:50:39;4.30;;;2.33;;
47513;SDS011;33951;51.988;5.910;2023-05-16T18:53:05;5.82;;;2.58;;
47513;SDS011;33951;51.988;5.910;2023-05-16T18:58:15;10.20;;;3.30;;
47513;SDS011;33951;51.988;5.910;2023-05-16T19:01:12;8.27;;;2.85;;
47513;SDS011;33951;51.988;5.910;2023-05-16T19:04:28;5.20;;;2.78;;
47513;SDS011;33951;51.988;5.910;2023-05-16T19:07:05;11.52;;;6.85;;
47513;SDS011;33951;51.988;5.910;2023-05-16T19:09:52;7.38;;;2.63;;
47513;SDS011;33951;51.988;5.910;2023-05-16T19:12:20;6.75;;;2.75;;
47513;SDS011;33951;51.988;5.910;2023-05-16T19:15:11;6.13;;;2.80;;
47513;SDS011;33951;51.988;5.910;2023-05-16T19:18:10;10.05;;;3.25;;
47513;SDS011;33951;51.988;5.910;2023-05-16T19:23:37;6.63;;;2.80;;
47513;SDS011;33951;51.988;5.910;2023-05-16T19:26:06;5.63;;;2.70;;
47513;SDS011;33951;51.988;5.910;2023-05-16T19:28:37;6.18;;;2.97;;
47513;SDS011;33951;51.988;5.910;2023-05-16T19:34:17;8.52;;;4.47;;
47513;SDS011;33951;51.988;5.910;2023-05-16T19:36:51;9.27;;;3.08;;
47513;SDS011;33951;51.988;5.910;2023-05-16T19:39:18;10.38;;;3.47;;
47513;SDS011;33951;51.988;5.910;2023-05-16T19:42:04;7.43;;;2.78;;
47513;SDS011;33951;51.988;5.910;2023-05-16T19:44:43;7.85;;;3.47;;
47513;SDS011;33951;51.988;5.910;2023-05-16T19:47:14;6.95;;;3.10;;
47513;SDS011;33951;51.988;5.910;2023-05-16T19:49:46;7.32;;;3.67;;
47513;SDS011;33951;51.988;5.910;2023-05-16T19:52:14;8.57;;;3.15;;
47513;SDS011;33951;51.988;5.910;2023-05-16T19:54:46;10.13;;;3.58;;
47513;SDS011;33951;51.988;5.910;2023-05-16T19:57:20;9.13;;;4.00;;
47513;SDS011;33951;51.988;5.910;2023-05-16T20:00:12;7.95;;;4.38;;
47513;SDS011;33951;51.988;5.910;2023-05-16T20:02:50;7.47;;;4.35;;
47513;SDS011;33951;51.988;5.910;2023-05-16T20:05:34;8.48;;;3.88;;
47513;SDS011;33951;51.988;5.910;2023-05-16T20:08:47;9.15;;;4.32;;
47513;SDS011;33951;51.988;5.910;2023-05-16T20:11:49;8.83;;;3.97;;
47513;SDS011;33951;51.988;5.910;2023-05-16T20:14:13;7.63;;;3.55;;
47513;SDS011;33951;51.988;5.910;2023-05-16T20:16:49;16.80;;;5.40;;
47513;SDS011;33951;51.988;5.910;2023-05-16T20:19:27;8.65;;;3.92;;
47513;SDS011;33951;51.988;5.910;2023-05-16T20:21:55;16.83;;;4.25;;
47513;SDS011;33951;51.988;5.910;2023-05-16T20:24:28;12.20;;;4.28;;
47513;SDS011;33951;51.988;5.910;2023-05-16T20:30:18;7.15;;;3.90;;
47513;SDS011;33951;51.988;5.910;2023-05-16T20:33:14;8.50;;;3.88;;
47513;SDS011;33951;51.988;5.910;2023-05-16T20:35:51;11.20;;;5.38;;
47513;SDS011;33951;51.988;5.910;2023-05-16T20:38:16;11.98;;;4.50;;
47513;SDS011;33951;51.988;5.910;2023-05-16T20:40:44;16.35;;;5.68;;
47513;SDS011;33951;51.988;5.910;2023-05-16T20:43:22;13.07;;;5.22;;
47513;SDS011;33951;51.988;5.910;2023-05-16T20:45:47;13.55;;;5.50;;
47513;SDS011;33951;51.988;5.910;2023-05-16T20:48:24;20.80;;;5.75;;
47513;SDS011;33951;51.988;5.910;2023-05-16T20:50:49;10.43;;;5.35;;
47513;SDS011;33951;51.988;5.910;2023-05-16T20:53:18;11.98;;;5.57;;
47513;SDS011;33951;51.988;5.910;2023-05-16T20:55:49;15.25;;;5.40;;
47513;SDS011;33951;51.988;5.910;2023-05-16T20:58:24;13.23;;;5.60;;
47513;SDS011;33951;51.988;5.910;2023-05-16T21:00:59;17.98;;;6.07;;
47513;SDS011;33951;51.988;5.910;2023-05-16T21:03:31;10.32;;;4.53;;
47513;SDS011;33951;51.988;5.910;2023-05-16T21:06:07;13.50;;;5.13;;
47513;SDS011;33951;51.988;5.910;2023-05-16T21:08:33;17.30;;;5.35;;
47513;SDS011;33951;51.988;5.910;2023-05-16T21:11:04;13.10;;;4.78;;
47513;SDS011;33951;51.988;5.910;2023-05-16T21:13:37;10.98;;;4.30;;